createdAt,value
2023-02-04T00:00:08.937Z,6.20
2023-02-04T00:02:35.625Z,6.43
2023-02-04T00:05:02.356Z,7.00
2023-02-04T00:07:29.036Z,6.70
2023-02-04T00:09:55.893Z,6.10
2023-02-04T00:12:22.711Z,6.70
2023-02-04T00:14:49.586Z,6.53
2023-02-04T00:17:17.071Z,7.03
2023-02-04T00:19:43.881Z,6.07
2023-02-04T00:22:10.831Z,7.53
2023-02-04T00:24:38.369Z,6.83
2023-02-04T00:27:06.029Z,6.90
2023-02-04T00:29:32.784Z,7.27
2023-02-04T00:31:59.586Z,7.00
2023-02-04T00:34:27.404Z,6.73
2023-02-04T00:36:54.043Z,6.47
2023-02-04T00:39:20.717Z,7.20
2023-02-04T00:41:47.337Z,6.97
2023-02-04T00:44:14.382Z,7.10
2023-02-04T00:46:42.477Z,7.10
2023-02-04T00:49:10.866Z,6.40
2023-02-04T00:51:39.037Z,7.00
2023-02-04T00:54:06.861Z,7.43
2023-02-04T00:56:35.426Z,6.97
2023-02-04T00:59:02.688Z,6.80
2023-02-04T01:01:29.650Z,7.20
2023-02-04T01:03:56.303Z,6.87
2023-02-04T01:06:23.823Z,7.10
2023-02-04T01:08:50.753Z,7.67
2023-02-04T01:11:18.483Z,6.87
2023-02-04T01:13:45.604Z,7.23
2023-02-04T01:16:13.122Z,7.30
2023-02-04T01:18:39.764Z,7.00
2023-02-04T01:21:06.538Z,7.07
2023-02-04T01:23:33.271Z,7.00
2023-02-04T01:26:00.366Z,6.73
2023-02-04T01:28:27.302Z,7.30
2023-02-04T01:30:54.220Z,7.20
2023-02-04T01:33:21.692Z,6.83
2023-02-04T01:35:48.340Z,7.60
2023-02-04T01:38:15.015Z,7.50
2023-02-04T01:40:42.676Z,6.67
2023-02-04T01:43:11.454Z,6.80
2023-02-04T01:45:38.388Z,6.47
2023-02-04T01:48:06.701Z,7.10
2023-02-04T01:50:34.125Z,6.67
2023-02-04T01:53:01.182Z,6.90
2023-02-04T01:55:30.375Z,6.97
2023-02-04T01:57:58.713Z,6.30
2023-02-04T02:00:33.709Z,7.13
2023-02-04T02:03:00.826Z,6.97
2023-02-04T02:05:35.470Z,7.27
2023-02-04T02:08:04.645Z,7.10
2023-02-04T02:10:32.579Z,6.33
2023-02-04T02:12:59.700Z,6.60
2023-02-04T02:15:26.809Z,6.70
2023-02-04T02:17:55.327Z,6.67
2023-02-04T02:20:24.786Z,6.77
2023-02-04T02:23:06.845Z,7.00
2023-02-04T02:25:33.890Z,7.13
2023-02-04T02:28:02.761Z,7.00
2023-02-04T02:30:30.081Z,7.53
2023-02-04T02:32:57.696Z,7.50
2023-02-04T02:35:24.465Z,7.07
2023-02-04T02:37:51.519Z,7.00
2023-02-04T02:40:18.708Z,7.40
2023-02-04T02:42:48.020Z,7.70
2023-02-04T02:45:22.731Z,7.17
2023-02-04T02:47:50.443Z,7.17
2023-02-04T02:50:21.185Z,7.47
2023-02-04T02:52:48.980Z,7.10
2023-02-04T02:55:18.401Z,6.97
2023-02-04T02:57:46.678Z,7.00
2023-02-04T03:00:34.051Z,8.30
2023-02-04T03:03:16.002Z,7.40
2023-02-04T03:05:46.541Z,7.30
2023-02-04T03:08:15.173Z,6.97
2023-02-04T03:10:43.202Z,6.80
2023-02-04T03:13:12.099Z,7.20
2023-02-04T03:15:39.116Z,7.70
2023-02-04T03:18:06.386Z,7.03
2023-02-04T03:20:34.087Z,7.67
2023-02-04T03:23:01.180Z,7.53
2023-02-04T03:25:28.337Z,7.17
2023-02-04T03:27:58.466Z,7.13
2023-02-04T03:30:26.446Z,8.07
2023-02-04T03:32:53.695Z,6.60
2023-02-04T03:35:20.601Z,6.67
2023-02-04T03:37:47.575Z,6.60
2023-02-04T03:40:14.278Z,8.50
2023-02-04T03:42:40.960Z,7.50
2023-02-04T03:45:08.023Z,7.30
2023-02-04T03:47:34.624Z,7.43
2023-02-04T03:50:01.290Z,6.90
2023-02-04T03:52:28.035Z,6.77
2023-02-04T03:54:54.681Z,7.97
2023-02-04T03:57:21.706Z,7.37
2023-02-04T03:59:48.371Z,7.53
2023-02-04T04:02:14.989Z,7.10
2023-02-04T04:04:41.739Z,7.03
2023-02-04T04:07:08.382Z,6.80
2023-02-04T04:09:35.038Z,6.83
2023-02-04T04:12:03.527Z,6.90
2023-02-04T04:14:30.262Z,7.03
2023-02-04T04:16:56.880Z,3.93
2023-02-04T04:19:24.708Z,4.07
2023-02-04T04:21:51.414Z,3.60
2023-02-04T04:24:18.277Z,3.70
2023-02-04T04:26:44.971Z,2.77
2023-02-04T04:29:11.727Z,2.80
2023-02-04T04:31:38.543Z,2.10
2023-02-04T04:34:05.322Z,2.10
2023-02-04T04:36:32.155Z,1.60
2023-02-04T04:38:59.649Z,1.63
2023-02-04T04:41:26.307Z,1.50
2023-02-04T04:43:53.010Z,1.30
2023-02-04T04:46:19.664Z,1.33
2023-02-04T04:48:46.311Z,1.10
2023-02-04T04:51:12.907Z,1.10
2023-02-04T04:53:39.554Z,1.10
2023-02-04T04:56:06.457Z,0.90
2023-02-04T04:58:33.092Z,0.70
2023-02-04T05:00:59.794Z,0.83
2023-02-04T05:03:27.131Z,0.70
2023-02-04T05:05:53.791Z,0.50
2023-02-04T05:08:20.913Z,0.40
2023-02-04T05:10:47.911Z,0.40
2023-02-04T05:13:16.238Z,0.60
2023-02-04T05:15:43.017Z,0.40
2023-02-04T05:18:09.747Z,0.30
2023-02-04T05:20:36.457Z,0.30
2023-02-04T05:23:05.460Z,0.43
2023-02-04T05:25:33.138Z,0.37
2023-02-04T05:27:59.914Z,0.50
2023-02-04T05:30:26.553Z,0.60
2023-02-04T05:32:53.272Z,0.40
2023-02-04T05:35:20.309Z,0.40
2023-02-04T05:37:46.973Z,0.60
2023-02-04T05:40:14.055Z,0.70
2023-02-04T05:42:41.744Z,0.67
2023-02-04T05:45:18.958Z,0.50
2023-02-04T05:47:45.920Z,0.30
2023-02-04T05:50:12.942Z,0.20
2023-02-04T05:52:40.321Z,0.27
2023-02-04T05:55:08.265Z,0.30
2023-02-04T05:57:34.890Z,0.30
2023-02-04T06:00:01.656Z,0.30
2023-02-04T06:02:38.722Z,0.20
2023-02-04T06:05:05.937Z,0.20
2023-02-04T06:07:32.602Z,0.20
2023-02-04T06:10:00.326Z,0.20
2023-02-04T06:12:27.111Z,0.20
2023-02-04T06:14:53.797Z,0.20
2023-02-04T06:17:20.447Z,0.20
2023-02-04T06:19:47.120Z,0.30
2023-02-04T06:22:13.809Z,0.67
2023-02-04T06:24:40.440Z,0.23
2023-02-04T06:27:07.125Z,0.50
2023-02-04T06:29:33.774Z,0.30
2023-02-04T06:32:00.472Z,0.40
2023-02-04T06:34:27.252Z,0.50
2023-02-04T06:36:53.909Z,0.40
2023-02-04T06:39:21.118Z,0.40
2023-02-04T06:41:47.758Z,1.77
2023-02-04T06:44:14.346Z,0.47
2023-02-04T06:46:41.006Z,0.43
2023-02-04T06:49:07.659Z,0.40
2023-02-04T06:51:34.268Z,0.40
2023-02-04T06:54:00.872Z,0.50
2023-02-04T06:56:29.360Z,0.50
2023-02-04T06:58:55.981Z,0.67
2023-02-04T07:01:22.631Z,0.70
2023-02-04T07:03:49.312Z,1.10
2023-02-04T07:06:16.122Z,1.70
2023-02-04T07:08:42.801Z,1.10
2023-02-04T07:11:09.535Z,1.20
2023-02-04T07:13:36.177Z,0.83
2023-02-04T07:16:02.878Z,0.70
2023-02-04T07:18:29.700Z,0.83
2023-02-04T07:20:56.397Z,1.10
2023-02-04T07:23:24.782Z,1.00
2023-02-04T07:25:55.908Z,1.10
2023-02-04T07:28:23.042Z,1.00
2023-02-04T07:30:50.091Z,1.13
2023-02-04T07:33:17.217Z,1.10
2023-02-04T07:35:44.374Z,1.20
2023-02-04T07:38:10.985Z,1.30
2023-02-04T07:40:39.133Z,1.70
2023-02-04T07:43:05.978Z,1.90
2023-02-04T07:45:33.661Z,2.30
2023-02-04T07:48:00.312Z,2.03
2023-02-04T07:50:27.006Z,1.77
2023-02-04T07:52:53.820Z,2.00
2023-02-04T07:55:20.477Z,1.80
2023-02-04T07:57:47.155Z,1.93
2023-02-04T08:00:14.457Z,1.47
2023-02-04T08:02:41.874Z,1.80
2023-02-04T08:05:09.852Z,1.40
2023-02-04T08:07:36.601Z,1.50
2023-02-04T08:10:04.727Z,1.53
2023-02-04T08:12:31.486Z,2.50
2023-02-04T08:14:58.370Z,2.00
2023-02-04T08:17:25.131Z,2.20
2023-02-04T08:19:51.876Z,2.30
2023-02-04T08:22:18.558Z,2.53
2023-02-04T08:24:45.343Z,2.23
2023-02-04T08:27:12.039Z,2.90
2023-02-04T08:29:38.675Z,2.57
2023-02-04T08:32:05.491Z,3.03
2023-02-04T08:34:32.233Z,2.83
2023-02-04T08:36:58.898Z,1.83
2023-02-04T08:39:25.535Z,1.60
2023-02-04T08:41:52.129Z,2.03
2023-02-04T08:44:18.719Z,2.20
2023-02-04T08:46:45.464Z,1.97
2023-02-04T08:49:12.231Z,2.20
2023-02-04T08:51:38.925Z,2.10
2023-02-04T08:54:05.539Z,2.73
2023-02-04T08:56:32.155Z,2.60
2023-02-04T08:58:58.741Z,2.90
2023-02-04T09:01:25.443Z,2.93
2023-02-04T09:03:52.288Z,3.40
2023-02-04T09:06:19.267Z,3.10
2023-02-04T09:08:45.910Z,2.60
2023-02-04T09:11:12.592Z,2.30
2023-02-04T09:13:39.506Z,1.70
2023-02-04T09:16:06.556Z,1.87
2023-02-04T09:18:33.328Z,1.67
2023-02-04T09:21:00.360Z,1.70
2023-02-04T09:23:26.954Z,2.00
2023-02-04T09:25:53.711Z,2.33
2023-02-04T09:28:20.402Z,2.67
2023-02-04T09:30:48.458Z,2.43
2023-02-04T09:33:16.859Z,2.90
2023-02-04T09:35:43.889Z,2.57
2023-02-04T09:38:10.819Z,2.30
2023-02-04T09:40:42.511Z,2.27
2023-02-04T09:43:18.146Z,2.30
2023-02-04T09:45:44.943Z,2.00
2023-02-04T09:48:14.511Z,2.17
2023-02-04T09:50:41.667Z,2.10
2023-02-04T09:53:14.922Z,1.73
2023-02-04T09:55:45.398Z,2.37
2023-02-04T09:58:18.007Z,1.90
2023-02-04T10:00:46.692Z,2.30
2023-02-04T10:03:18.976Z,2.33
2023-02-04T10:05:46.899Z,2.03
2023-02-04T10:08:19.702Z,2.30
2023-02-04T10:10:49.044Z,2.10
2023-02-04T10:13:27.343Z,2.15
2023-02-04T10:15:54.019Z,2.67
2023-02-04T10:18:28.902Z,2.33
2023-02-04T10:21:11.760Z,2.55
2023-02-04T10:23:38.685Z,2.90
2023-02-04T10:26:05.318Z,3.03
2023-02-04T10:28:36.754Z,3.00
2023-02-04T10:31:04.068Z,3.25
2023-02-04T10:33:31.654Z,2.92
2023-02-04T10:35:58.355Z,3.00
2023-02-04T10:38:25.065Z,3.45
2023-02-04T10:41:05.732Z,2.90
2023-02-04T10:43:32.621Z,3.15
2023-02-04T10:46:02.717Z,2.80
2023-02-04T10:48:30.856Z,3.13
2023-02-04T10:50:59.213Z,3.10
2023-02-04T10:53:45.670Z,3.10
2023-02-04T10:56:21.199Z,3.80
2023-02-04T10:58:49.355Z,3.28
2023-02-04T11:01:16.832Z,3.25
2023-02-04T11:03:47.006Z,3.30
2023-02-04T11:06:21.761Z,4.73
2023-02-04T11:08:50.145Z,3.77
2023-02-04T11:11:20.311Z,7.70
2023-02-04T11:13:49.923Z,4.73
2023-02-04T11:16:35.451Z,7.50
2023-02-04T11:19:10.828Z,3.93
2023-02-04T11:21:37.408Z,3.60
2023-02-04T11:24:16.216Z,3.47
2023-02-04T11:26:49.205Z,6.17
2023-02-04T11:29:16.684Z,9.77
2023-02-04T11:31:49.559Z,6.00
2023-02-04T11:34:16.211Z,6.40
2023-02-04T11:36:58.997Z,3.90
2023-02-04T11:39:34.147Z,5.30
2023-02-04T11:42:01.482Z,3.70
2023-02-04T11:44:28.563Z,3.73
2023-02-04T11:46:56.775Z,3.57
2023-02-04T11:49:25.558Z,3.80
2023-02-04T11:52:03.940Z,3.63
2023-02-04T11:54:30.600Z,3.90
2023-02-04T11:56:59.785Z,3.77
2023-02-04T11:59:26.763Z,3.77
2023-02-04T12:02:16.723Z,3.70
2023-02-04T12:04:58.396Z,3.50
2023-02-04T12:07:28.553Z,4.00
2023-02-04T12:09:55.995Z,4.00
2023-02-04T12:12:30.762Z,3.80
2023-02-04T12:15:03.993Z,3.70
2023-02-04T12:17:30.767Z,3.43
2023-02-04T12:19:57.457Z,3.03
2023-02-04T12:22:24.129Z,3.60
2023-02-04T12:24:52.331Z,3.27
2023-02-04T12:27:19.406Z,3.43
2023-02-04T12:29:46.214Z,3.47
2023-02-04T12:32:12.894Z,3.67
2023-02-04T12:34:39.590Z,3.70
2023-02-04T12:37:06.201Z,3.43
2023-02-04T12:39:32.838Z,3.50
2023-02-04T12:41:59.452Z,2.93
2023-02-04T12:44:26.116Z,3.53
2023-02-04T12:46:52.832Z,3.10
2023-02-04T12:49:20.794Z,3.07
2023-02-04T12:51:47.400Z,3.47
2023-02-04T12:54:14.087Z,3.30
2023-02-04T12:56:41.467Z,3.37
2023-02-04T12:59:08.120Z,3.57
2023-02-04T13:01:34.863Z,3.13
2023-02-04T13:04:01.628Z,3.70
2023-02-04T13:06:28.365Z,3.10
2023-02-04T13:08:55.023Z,3.57
2023-02-04T13:11:21.651Z,3.23
2023-02-04T13:13:48.292Z,4.77
2023-02-04T13:16:14.974Z,3.23
2023-02-04T13:18:41.629Z,3.70
2023-02-04T13:21:08.350Z,3.17
2023-02-04T13:23:35.037Z,4.10
2023-02-04T13:26:01.976Z,3.60
2023-02-04T13:28:28.626Z,3.70
2023-02-04T13:30:55.254Z,3.40
2023-02-04T13:33:21.974Z,3.97
2023-02-04T13:35:48.624Z,3.10
2023-02-04T13:38:15.224Z,6.17
2023-02-04T13:40:41.879Z,3.40
2023-02-04T13:43:08.680Z,3.40
2023-02-04T13:45:35.785Z,3.13
2023-02-04T13:48:02.670Z,2.90
2023-02-04T13:50:30.072Z,3.17
2023-02-04T13:52:56.824Z,2.97
2023-02-04T13:55:24.291Z,3.00
2023-02-04T13:57:50.922Z,4.00
2023-02-04T14:00:17.947Z,3.17
2023-02-04T14:02:44.658Z,3.77
2023-02-04T14:05:11.515Z,4.40
2023-02-04T14:07:38.103Z,4.37
2023-02-04T14:10:05.177Z,3.50
2023-02-04T14:12:31.783Z,3.20
2023-02-04T14:14:58.540Z,3.40
2023-02-04T14:17:25.270Z,3.33
2023-02-04T14:19:51.909Z,3.27
2023-02-04T14:22:18.564Z,3.40
2023-02-04T14:24:47.434Z,3.17
2023-02-04T14:27:17.069Z,3.13
2023-02-04T14:29:43.732Z,3.17
2023-02-04T14:32:10.388Z,3.40
2023-02-04T14:34:37.084Z,3.57
2023-02-04T14:37:03.703Z,3.70
2023-02-04T14:39:30.335Z,4.17
2023-02-04T14:41:57.059Z,3.07
2023-02-04T14:44:23.676Z,3.00
2023-02-04T14:46:50.438Z,3.80
2023-02-04T14:49:17.504Z,3.47
2023-02-04T14:51:44.580Z,3.23
2023-02-04T14:54:11.335Z,3.30
2023-02-04T14:56:38.323Z,3.80
2023-02-04T14:59:05.203Z,3.43
2023-02-04T15:01:32.037Z,3.60
2023-02-04T15:03:58.809Z,3.83
2023-02-04T15:06:25.550Z,3.33
2023-02-04T15:08:52.377Z,4.17
2023-02-04T15:11:19.095Z,3.77
2023-02-04T15:13:46.617Z,3.83
2023-02-04T15:16:14.747Z,3.90
2023-02-04T15:18:41.885Z,4.20
2023-02-04T15:21:08.620Z,4.00
2023-02-04T15:23:35.361Z,4.40
2023-02-04T15:26:05.130Z,3.63
2023-02-04T15:28:31.989Z,3.37
2023-02-04T15:30:58.815Z,3.80
2023-02-04T15:33:25.608Z,3.50
2023-02-04T15:35:52.286Z,3.20
2023-02-04T15:38:19.128Z,3.70
2023-02-04T15:40:45.858Z,3.43
2023-02-04T15:43:12.554Z,3.20
2023-02-04T15:45:41.424Z,3.70
2023-02-04T15:48:08.522Z,3.33
2023-02-04T15:50:35.598Z,3.30
2023-02-04T15:53:02.651Z,3.83
2023-02-04T15:55:29.522Z,3.57
2023-02-04T15:57:56.323Z,4.40
2023-02-04T16:00:25.275Z,4.10
2023-02-04T16:02:52.023Z,4.20
2023-02-04T16:05:18.793Z,5.00
2023-02-04T16:07:45.538Z,4.37
2023-02-04T16:10:12.270Z,5.10
2023-02-04T16:12:41.825Z,5.93
2023-02-04T16:15:09.382Z,4.90
2023-02-04T16:17:36.644Z,4.63
2023-02-04T16:20:03.891Z,4.63
2023-02-04T16:22:30.777Z,5.20
2023-02-04T16:24:57.518Z,5.20
2023-02-04T16:27:24.395Z,5.20
2023-02-04T16:29:51.229Z,5.40
2023-02-04T16:32:18.125Z,6.00
2023-02-04T16:34:45.289Z,6.23
2023-02-04T16:37:12.103Z,6.33
2023-02-04T16:39:39.008Z,6.17
2023-02-04T16:42:08.566Z,6.40
2023-02-04T16:44:38.674Z,8.60
2023-02-04T16:47:06.950Z,6.60
2023-02-04T16:49:34.228Z,6.40
2023-02-04T16:52:04.234Z,6.47
2023-02-04T16:54:31.749Z,6.77
2023-02-04T16:57:00.327Z,6.33
2023-02-04T16:59:28.359Z,9.13
2023-02-04T17:01:57.588Z,9.17
2023-02-04T17:04:28.990Z,22.47
2023-02-04T17:06:56.471Z,18.83
2023-02-04T17:09:23.166Z,15.67
2023-02-04T17:11:49.897Z,16.03
2023-02-04T17:14:16.638Z,20.40
2023-02-04T17:16:43.926Z,17.03
2023-02-04T17:19:10.878Z,11.33
2023-02-04T17:21:40.768Z,11.63
2023-02-04T17:24:08.431Z,12.13
2023-02-04T17:26:39.714Z,19.23
2023-02-04T17:29:08.822Z,23.20
2023-02-04T17:31:35.962Z,18.03
2023-02-04T17:34:03.271Z,15.03
2023-02-04T17:36:31.166Z,11.93
2023-02-04T17:38:57.967Z,15.63
2023-02-04T17:41:24.705Z,13.30
2023-02-04T17:43:51.504Z,11.13
2023-02-04T17:46:18.242Z,11.23
2023-02-04T17:48:44.938Z,10.70
2023-02-04T17:51:11.723Z,11.27
2023-02-04T17:53:40.402Z,10.67
2023-02-04T17:56:12.292Z,10.33
2023-02-04T17:58:39.541Z,9.67
2023-02-04T18:01:15.702Z,9.17
2023-02-04T18:03:43.229Z,10.60
2023-02-04T18:06:27.121Z,15.67
2023-02-04T18:09:01.146Z,11.67
2023-02-04T18:11:31.760Z,16.10
2023-02-04T18:14:25.216Z,9.50
2023-02-04T18:16:56.758Z,9.67
2023-02-04T18:19:30.866Z,8.50
2023-02-04T18:21:58.656Z,9.93
2023-02-04T18:24:30.324Z,9.47
2023-02-04T18:27:01.221Z,12.30
2023-02-04T18:29:33.004Z,10.70
2023-02-04T18:32:25.883Z,12.07
2023-02-04T18:34:55.154Z,16.80
2023-02-04T18:37:42.126Z,21.97
2023-02-04T18:40:08.748Z,12.87
2023-02-04T18:42:43.651Z,13.43
2023-02-04T18:45:31.014Z,9.53
2023-02-04T18:48:00.404Z,7.27
2023-02-04T18:50:34.323Z,7.73
2023-02-04T18:53:13.493Z,7.50
2023-02-04T18:55:51.362Z,7.83
2023-02-04T18:58:36.143Z,14.03
2023-02-04T19:01:11.643Z,14.93
2023-02-04T19:04:02.190Z,13.37
2023-02-04T19:06:39.331Z,12.33
2023-02-04T19:09:12.192Z,13.57
2023-02-04T19:11:41.802Z,14.40
2023-02-04T19:14:22.892Z,13.43
2023-02-04T19:16:52.471Z,12.70
2023-02-04T19:19:39.193Z,13.27
2023-02-04T19:22:26.955Z,12.40
2023-02-04T19:25:19.177Z,13.03
2023-02-04T19:27:50.891Z,12.90
2023-02-04T19:30:26.790Z,13.27
2023-02-04T19:32:58.066Z,13.53
2023-02-04T19:35:35.476Z,10.03
2023-02-04T19:38:28.677Z,10.40
2023-02-04T19:40:55.376Z,10.40
2023-02-04T19:43:24.316Z,11.17
2023-02-04T19:45:51.241Z,12.23
2023-02-04T19:48:38.313Z,12.43
2023-02-04T19:51:17.790Z,11.47
2023-02-04T19:53:46.962Z,12.60
2023-02-04T19:56:43.364Z,13.83
2023-02-04T19:59:29.583Z,14.67
2023-02-04T20:02:21.391Z,12.53
2023-02-04T20:04:54.084Z,14.40
2023-02-04T20:07:25.032Z,14.83
2023-02-04T20:10:22.497Z,13.67
2023-02-04T20:12:52.175Z,13.87
2023-02-04T20:15:20.926Z,15.60
2023-02-04T20:17:49.088Z,13.00
2023-02-04T20:20:30.967Z,17.13
2023-02-04T20:22:59.427Z,20.50
2023-02-04T20:25:39.689Z,22.00
2023-02-04T20:28:19.583Z,19.83
2023-02-04T20:30:49.260Z,16.37
2023-02-04T20:33:29.691Z,15.10
2023-02-04T20:36:28.170Z,17.57
2023-02-04T20:39:19.735Z,17.07
2023-02-04T20:41:47.080Z,17.37
2023-02-04T20:44:23.213Z,17.77
2023-02-04T20:46:49.898Z,18.47
2023-02-04T20:49:26.171Z,18.87
2023-02-04T20:52:00.068Z,18.13
2023-02-04T20:54:30.389Z,18.97
2023-02-04T20:57:14.846Z,20.97
2023-02-04T20:59:42.804Z,22.67
2023-02-04T21:02:20.925Z,23.27
2023-02-04T21:04:53.557Z,24.07
2023-02-04T21:07:22.589Z,21.47
2023-02-04T21:09:49.874Z,21.13
2023-02-04T21:12:16.636Z,21.57
2023-02-04T21:14:43.350Z,19.67
2023-02-04T21:17:09.988Z,18.03
2023-02-04T21:19:37.394Z,21.63
2023-02-04T21:22:04.104Z,18.30
2023-02-04T21:24:31.802Z,18.40
2023-02-04T21:26:58.863Z,22.13
2023-02-04T21:29:26.073Z,19.77
2023-02-04T21:31:54.376Z,20.50
2023-02-04T21:34:21.485Z,20.03
2023-02-04T21:36:48.215Z,20.07
2023-02-04T21:39:14.927Z,21.17
2023-02-04T21:41:41.564Z,21.53
2023-02-04T21:44:08.329Z,20.73
2023-02-04T21:46:35.045Z,19.63
2023-02-04T21:49:02.411Z,18.73
2023-02-04T21:51:29.139Z,19.33
2023-02-04T21:53:55.945Z,15.60
2023-02-04T21:56:22.672Z,16.43
2023-02-04T21:58:49.324Z,17.17
2023-02-04T22:01:15.945Z,19.73
2023-02-04T22:03:42.701Z,20.70
2023-02-04T22:06:09.356Z,21.17
2023-02-04T22:08:36.001Z,20.63
2023-02-04T22:11:02.752Z,20.97
2023-02-04T22:13:29.372Z,21.23
2023-02-04T22:15:56.109Z,22.70
2023-02-04T22:18:22.988Z,21.90
2023-02-04T22:20:49.624Z,20.77
2023-02-04T22:23:16.568Z,21.30
2023-02-04T22:25:46.315Z,19.93
2023-02-04T22:28:14.235Z,15.23
2023-02-04T22:30:40.907Z,13.97
2023-02-04T22:33:07.625Z,11.87
2023-02-04T22:35:36.656Z,12.93
2023-02-04T22:38:03.474Z,16.13
2023-02-04T22:40:30.453Z,10.80
2023-02-04T22:42:57.171Z,14.93
2023-02-04T22:45:23.841Z,15.23
2023-02-04T22:47:50.540Z,16.83
2023-02-04T22:50:17.233Z,15.30
2023-02-04T22:52:44.093Z,15.43
2023-02-04T22:55:10.829Z,13.77
2023-02-04T22:57:37.481Z,15.50
2023-02-04T23:00:08.907Z,16.17
2023-02-04T23:02:35.683Z,17.10
2023-02-04T23:05:03.204Z,17.80
2023-02-04T23:07:30.807Z,18.10
2023-02-04T23:09:57.604Z,17.50
2023-02-04T23:12:24.321Z,15.57
2023-02-04T23:14:51.110Z,15.70
2023-02-04T23:17:18.241Z,15.60
2023-02-04T23:19:45.438Z,16.37
2023-02-04T23:22:13.228Z,16.03
2023-02-04T23:24:41.168Z,15.90
2023-02-04T23:27:10.752Z,16.43
2023-02-04T23:29:38.375Z,16.27
2023-02-04T23:32:05.207Z,15.80
2023-02-04T23:34:34.655Z,15.83
2023-02-04T23:37:01.751Z,15.27
2023-02-04T23:39:28.596Z,14.10
2023-02-04T23:41:55.286Z,15.43
2023-02-04T23:44:21.922Z,15.33
2023-02-04T23:46:48.640Z,14.53
2023-02-04T23:49:15.724Z,15.07
2023-02-04T23:51:42.473Z,15.17
2023-02-04T23:54:09.190Z,14.13
2023-02-04T23:56:35.927Z,15.00
2023-02-04T23:59:02.740Z,14.63
